Terminal Aerodrome Forecast
Issued by NWS Cleveland, OH

Home | Current Version | Previous Version | Text Only | Print | Product List | Glossary On
Versions: 1 2 3 4 5 6 7 8 9 10 11 12 13 14 15 16 17 18 19 20
000
FTUS41 KCLE 040540
TAFYNG
TAF
KYNG 040540Z 0406/0506 VRB04KT 3SM BR SCT004 BKN015
     FM040700 VRB04KT 5SM -SHRA BR BKN015 OVC070
     FM041000 VRB04KT 4SM BR SCT005 BKN050
      TEMPO 0410/0413 2SM BR BKN003
     FM041400 18006KT P6SM SCT025
     FM041800 18008KT P6SM VCTS BKN045CB
     FM050000 15003KT P6SM SCT050 BKN250=

USA.gov is the U.S. government's official web portal to all federal, state and local government web resources and services.